Time;durP1;ratioP1;P1;durP2;ratioP2;P2;SDS_P1;SDS_P2;PMS_P1;PMS_P2;Temp;Humidity;BMP_temperature;BMP_pressure;BME280_temperature;BME280_humidity;BME280_pressure;Samples;Min_cycle;Max_cycle;Signal;HPM_P1;HPM_P2
2023/05/27 00:05:13;;;;;;;16.85;3.70;;;9.10;99.90;;;;;;12440265;28;20414;-38
2023/05/27 00:11:16;;;;;;;14.45;3.78;;;9.00;99.90;;;;;;12455899;28;20057;-37
2023/05/27 00:17:17;;;;;;;18.85;3.80;;;9.00;99.90;;;;;;12451702;28;20046;-37
2023/05/27 00:23:20;;;;;;;18.08;3.90;;;9.00;99.90;;;;;;12448005;28;20168;-37
2023/05/27 00:29:22;;;;;;;16.95;4.18;;;9.20;99.90;;;;;;12459230;28;20046;-37
2023/05/27 00:35:24;;;;;;;26.23;4.38;;;9.10;99.90;;;;;;12452271;28;20084;-37
2023/05/27 00:41:32;;;;;;;20.60;4.82;;;9.00;99.90;;;;;;12441770;28;20105;-37
2023/05/27 00:47:34;;;;;;;23.13;4.72;;;8.80;99.90;;;;;;12443875;28;20391;-37
2023/05/27 00:53:42;;;;;;;19.25;5.03;;;8.90;99.90;;;;;;12453342;28;20041;-37
2023/05/27 00:59:45;;;;;;;17.00;4.05;;;8.70;99.90;;;;;;12454559;28;20057;-37
2023/05/27 01:05:47;;;;;;;19.25;4.05;;;8.90;99.90;;;;;;12449755;28;20605;-37
2023/05/27 01:12:07;;;;;;;18.30;4.32;;;9.00;99.90;;;;;;12444710;28;20414;-37
2023/05/27 01:18:12;;;;;;;14.57;3.97;;;9.20;99.90;;;;;;12451705;28;20509;-36
2023/05/27 01:24:14;;;;;;;15.52;3.83;;;9.60;99.90;;;;;;12448678;28;20454;-37
2023/05/27 01:30:20;;;;;;;19.33;4.28;;;9.70;99.90;;;;;;12450808;28;20060;-37
2023/05/27 01:36:26;;;;;;;14.82;3.90;;;9.40;99.90;;;;;;12447547;28;20045;-37
2023/05/27 01:42:28;;;;;;;20.27;4.13;;;9.30;99.90;;;;;;12442059;28;20042;-36
2023/05/27 01:48:30;;;;;;;17.33;4.00;;;9.10;99.90;;;;;;12450652;28;20524;-37
2023/05/27 01:54:32;;;;;;;15.75;4.72;;;8.70;99.90;;;;;;12447677;28;20405;-37
2023/05/27 02:00:34;;;;;;;21.48;4.18;;;8.40;99.90;;;;;;12443218;28;20438;-37
2023/05/27 02:06:37;;;;;;;18.15;4.35;;;8.20;99.90;;;;;;12455195;28;20100;-38
2023/05/27 02:12:39;;;;;;;17.35;4.28;;;8.30;99.90;;;;;;12450441;28;20057;-38
2023/05/27 02:18:41;;;;;;;21.17;4.20;;;8.30;99.90;;;;;;12441098;28;20046;-37
2023/05/27 02:24:43;;;;;;;16.10;4.18;;;8.40;99.90;;;;;;12447776;28;20038;-37
2023/05/27 02:30:45;;;;;;;14.98;3.80;;;8.40;99.90;;;;;;12452104;28;20053;-37
2023/05/27 02:36:47;;;;;;;20.35;4.35;;;8.40;99.90;;;;;;12472845;28;20091;-38
2023/05/27 02:42:52;;;;;;;20.80;4.00;;;8.40;99.90;;;;;;12449793;28;20045;-37
2023/05/27 02:48:54;;;;;;;18.77;3.75;;;8.50;99.90;;;;;;12442238;28;20045;-37
2023/05/27 02:54:56;;;;;;;19.00;4.03;;;8.30;99.90;;;;;;12440919;28;20037;-37
2023/05/27 03:00:58;;;;;;;12.38;3.22;;;8.30;99.90;;;;;;12445520;28;20045;-38
2023/05/27 03:07:01;;;;;;;13.68;3.10;;;8.70;99.90;;;;;;12448787;28;20041;-38
2023/05/27 03:13:03;;;;;;;17.60;3.60;;;9.20;99.90;;;;;;12441712;28;20069;-38
2023/05/27 03:19:05;;;;;;;15.13;3.45;;;9.30;99.90;;;;;;12448707;28;20054;-38
2023/05/27 03:25:07;;;;;;;17.33;3.42;;;9.30;99.90;;;;;;12444935;28;20054;-37
2023/05/27 03:31:12;;;;;;;15.55;3.15;;;9.30;99.90;;;;;;12439073;28;20052;-38
2023/05/27 03:37:14;;;;;;;14.73;3.42;;;9.30;99.90;;;;;;12439785;28;20129;-37
2023/05/27 03:43:16;;;;;;;13.85;3.60;;;9.40;99.90;;;;;;12440359;28;20137;-38
2023/05/27 03:49:19;;;;;;;18.58;4.93;;;9.40;99.90;;;;;;12447251;28;20041;-38
2023/05/27 03:55:20;;;;;;;16.60;3.40;;;9.40;99.90;;;;;;12453652;28;20042;-38
2023/05/27 04:01:23;;;;;;;14.00;3.53;;;9.50;99.90;;;;;;12449404;28;20052;-37
2023/05/27 04:07:26;;;;;;;13.35;3.50;;;9.80;99.90;;;;;;12460281;28;20053;-37
2023/05/27 04:13:28;;;;;;;19.50;4.23;;;10.00;99.90;;;;;;12448079;28;20041;-37
2023/05/27 04:19:32;;;;;;;11.88;3.55;;;9.60;99.90;;;;;;12431491;28;20504;-36
2023/05/27 04:25:34;;;;;;;13.43;3.80;;;10.80;99.90;;;;;;12443402;28;20046;-35
2023/05/27 04:31:38;;;;;;;14.43;4.00;;;11.60;99.90;;;;;;12436321;28;20049;-35
2023/05/27 04:37:40;;;;;;;19.33;4.20;;;12.20;99.90;;;;;;12440350;28;20050;-35
2023/05/27 04:43:43;;;;;;;16.15;3.67;;;12.40;99.90;;;;;;12440752;28;22498;-36
2023/05/27 04:49:46;;;;;;;9.98;3.42;;;12.80;99.90;;;;;;12445798;28;20049;-35
2023/05/27 04:55:48;;;;;;;7.32;2.80;;;13.50;99.90;;;;;;12434452;28;20045;-35
2023/05/27 05:03:00;;;;;;;15.25;4.10;;;13.00;99.90;;;;;;12448226;28;20414;-36
2023/05/27 05:08:21;;;;;;;10.40;2.90;;;11.70;99.90;;;;;;12409827;28;20049;-35
2023/05/27 05:14:23;;;;;;;19.35;4.20;;;11.60;99.90;;;;;;12416633;28;20074;-36
2023/05/27 05:20:25;;;;;;;18.92;4.00;;;10.70;99.90;;;;;;12418073;28;20050;-35
2023/05/27 05:26:27;;;;;;;20.42;4.47;;;10.50;99.90;;;;;;12435324;28;20508;-35
2023/05/27 05:32:29;;;;;;;22.90;5.57;;;10.30;99.90;;;;;;12441412;28;20046;-36
2023/05/27 05:38:31;;;;;;;21.25;4.72;;;10.30;99.90;;;;;;12430473;28;20483;-36
2023/05/27 05:44:34;;;;;;;14.63;4.63;;;10.20;99.90;;;;;;12444777;28;20046;-36
2023/05/27 05:50:37;;;;;;;18.17;4.75;;;10.50;99.90;;;;;;12442294;28;20050;-36
2023/05/27 05:56:39;;;;;;;18.98;4.50;;;9.80;99.90;;;;;;12444827;28;20053;-35
2023/05/27 06:02:41;;;;;;;19.67;4.85;;;10.10;99.90;;;;;;12434997;28;20049;-37
2023/05/27 06:08:43;;;;;;;21.17;4.90;;;10.70;99.90;;;;;;12439359;28;20046;-36
2023/05/27 06:14:46;;;;;;;18.42;5.47;;;10.50;99.90;;;;;;12446061;28;20490;-35
2023/05/27 06:20:49;;;;;;;23.17;5.13;;;10.40;99.90;;;;;;12468365;28;20060;-35
2023/05/27 06:26:51;;;;;;;22.00;5.82;;;10.40;99.90;;;;;;12445496;28;20042;-36
2023/05/27 06:32:53;;;;;;;18.52;5.30;;;10.90;99.90;;;;;;12444067;28;20045;-36
2023/05/27 06:38:56;;;;;;;20.23;5.45;;;10.90;99.90;;;;;;12456757;28;20042;-36
2023/05/27 06:44:57;;;;;;;20.00;5.03;;;11.10;99.90;;;;;;12456045;28;20501;-35
2023/05/27 06:51:03;;;;;;;19.05;4.85;;;11.70;99.90;;;;;;12458151;28;20540;-36
2023/05/27 06:57:05;;;;;;;14.15;4.50;;;12.20;99.90;;;;;;12453836;28;20038;-36
2023/05/27 07:03:07;;;;;;;15.43;4.63;;;11.70;99.90;;;;;;12442676;28;20038;-36
2023/05/27 07:09:11;;;;;;;13.75;4.70;;;12.40;99.90;;;;;;12433756;28;20041;-36
2023/05/27 07:15:12;;;;;;;16.55;5.20;;;12.60;99.90;;;;;;12441134;28;20046;-36
2023/05/27 07:21:17;;;;;;;17.75;5.10;;;12.50;99.90;;;;;;12475211;28;20057;-36
2023/05/27 07:27:19;;;;;;;16.77;4.28;;;12.70;99.90;;;;;;12440454;28;20054;-36
2023/05/27 07:33:20;;;;;;;17.17;4.82;;;13.00;99.90;;;;;;12452418;28;20104;-37
2023/05/27 07:39:22;;;;;;;14.90;5.03;;;12.90;99.90;;;;;;12447189;28;20047;-36
2023/05/27 07:45:24;;;;;;;15.82;5.03;;;13.10;99.90;;;;;;12436027;28;20049;-36
2023/05/27 07:51:27;;;;;;;14.00;4.00;;;13.20;99.90;;;;;;12453399;28;20042;-36
2023/05/27 07:57:29;;;;;;;12.63;4.03;;;13.50;99.90;;;;;;12450273;28;20053;-36
2023/05/27 08:03:31;;;;;;;18.75;4.35;;;13.40;99.90;;;;;;12435710;28;20042;-36
2023/05/27 08:09:33;;;;;;;15.55;3.70;;;13.90;99.90;;;;;;12438406;28;20048;-37
2023/05/27 08:15:35;;;;;;;12.95;3.28;;;14.20;99.90;;;;;;12441200;28;20061;-37
2023/05/27 08:21:43;;;;;;;13.93;3.30;;;14.30;99.90;;;;;;12449753;28;20053;-37
2023/05/27 08:28:01;;;;;;;10.13;3.05;;;14.60;99.90;;;;;;12434741;28;20107;-37
2023/05/27 08:41:41;;;;;;;16.20;4.15;;;14.50;99.90;;;;;;12445354;28;20413;-37
2023/05/27 08:47:43;;;;;;;13.07;3.22;;;14.70;99.90;;;;;;12449704;28;20061;-37
2023/05/27 08:53:46;;;;;;;11.82;3.35;;;14.70;99.90;;;;;;12452097;28;20050;-36
2023/05/27 08:59:50;;;;;;;10.70;2.70;;;14.90;99.90;;;;;;12439623;28;20592;-37
2023/05/27 09:05:52;;;;;;;11.50;3.50;;;15.30;99.90;;;;;;12449882;28;20088;-37
2023/05/27 09:12:00;;;;;;;13.75;3.60;;;15.70;99.90;;;;;;12443796;28;20041;-37
2023/05/27 09:18:03;;;;;;;12.02;3.40;;;15.60;99.90;;;;;;12436847;28;20393;-38
2023/05/27 09:24:05;;;;;;;9.40;2.63;;;16.10;99.90;;;;;;12438106;28;20410;-37
2023/05/27 09:30:08;;;;;;;11.30;3.25;;;15.90;99.90;;;;;;12438412;28;20069;-37
2023/05/27 09:36:10;;;;;;;12.90;3.13;;;16.20;99.90;;;;;;12413673;28;20477;-37
2023/05/27 09:42:13;;;;;;;10.52;2.58;;;15.80;99.90;;;;;;12443911;28;20180;-37
2023/05/27 09:48:19;;;;;;;18.25;3.22;;;16.30;99.90;;;;;;12441591;28;20042;-37
2023/05/27 09:54:22;;;;;;;12.70;2.92;;;16.70;99.90;;;;;;12446304;28;20048;-36
2023/05/27 10:00:26;;;;;;;10.98;3.25;;;16.20;99.90;;;;;;12448485;28;20097;-37
2023/05/27 10:06:29;;;;;;;9.27;2.90;;;16.60;99.90;;;;;;12435880;28;20398;-37
2023/05/27 10:12:44;;;;;;;13.10;2.90;;;16.90;99.90;;;;;;12437932;28;20496;-39
2023/05/27 10:18:52;;;;;;;10.55;2.92;;;17.40;99.90;;;;;;12437797;28;20092;-38
2023/05/27 10:24:54;;;;;;;13.95;3.63;;;17.70;99.90;;;;;;12437587;28;20065;-40
2023/05/27 10:31:11;;;;;;;13.50;3.63;;;18.00;99.90;;;;;;12437427;28;20072;-39
2023/05/27 10:37:21;;;;;;;14.30;4.03;;;17.50;99.90;;;;;;12446529;28;20048;-39
2023/05/27 10:43:28;;;;;;;12.50;3.15;;;17.50;99.90;;;;;;12431710;28;20062;-38
2023/05/27 10:49:35;;;;;;;8.07;3.25;;;18.00;99.90;;;;;;12437201;28;20397;-39
2023/05/27 10:55:38;;;;;;;11.90;3.50;;;17.80;99.90;;;;;;12432023;28;20077;-39
2023/05/27 11:01:40;;;;;;;12.80;4.10;;;17.90;99.90;;;;;;12433306;28;20042;-38
2023/05/27 11:07:44;;;;;;;11.38;3.25;;;18.40;99.90;;;;;;12427244;28;20580;-38
2023/05/27 11:13:48;;;;;;;13.52;3.13;;;17.70;99.90;;;;;;12428333;28;20505;-40
2023/05/27 11:19:50;;;;;;;12.60;3.17;;;17.90;99.90;;;;;;12419737;28;20077;-40
2023/05/27 11:25:53;;;;;;;14.20;3.65;;;18.50;99.90;;;;;;12425609;28;20454;-40
2023/05/27 11:31:55;;;;;;;10.13;2.95;;;17.90;99.90;;;;;;12425869;28;20157;-39
2023/05/27 11:37:57;;;;;;;9.38;3.00;;;18.30;99.90;;;;;;12417432;28;20483;-39
2023/05/27 11:44:04;;;;;;;10.02;2.85;;;18.80;99.90;;;;;;12422839;28;20053;-38
2023/05/27 11:50:06;;;;;;;13.20;3.35;;;19.40;99.90;;;;;;12440383;28;20046;-38
2023/05/27 11:56:08;;;;;;;9.38;3.00;;;18.50;99.90;;;;;;12427803;28;20671;-39
2023/05/27 12:02:10;;;;;;;9.85;2.67;;;18.30;99.90;;;;;;12418133;28;20037;-38
2023/05/27 12:08:12;;;;;;;15.27;3.38;;;18.50;99.90;;;;;;12431644;28;20095;-38
2023/05/27 12:14:14;;;;;;;10.30;2.58;;;18.30;99.90;;;;;;12456022;28;20045;-38
2023/05/27 12:20:18;;;;;;;9.90;2.78;;;18.50;99.90;;;;;;12454461;28;20510;-38
2023/05/27 12:26:20;;;;;;;11.52;2.50;;;18.40;99.90;;;;;;12451331;28;20046;-38
2023/05/27 12:32:22;;;;;;;11.38;2.83;;;18.60;99.90;;;;;;12446426;28;20509;-39
2023/05/27 12:38:24;;;;;;;6.55;2.50;;;19.30;99.90;;;;;;12451058;28;20433;-39
2023/05/27 12:44:26;;;;;;;11.35;2.95;;;19.20;99.90;;;;;;12445726;28;20042;-39
2023/05/27 12:50:28;;;;;;;11.00;2.80;;;19.50;99.90;;;;;;12455795;28;20092;-39
2023/05/27 12:56:30;;;;;;;9.43;2.58;;;19.40;99.90;;;;;;12445513;28;20046;-39
2023/05/27 13:02:32;;;;;;;6.60;2.75;;;19.00;99.90;;;;;;12444307;28;20034;-39
2023/05/27 13:08:34;;;;;;;7.82;3.00;;;18.90;99.90;;;;;;12445581;28;20050;-39
2023/05/27 13:14:36;;;;;;;9.48;3.03;;;18.40;99.90;;;;;;12448133;28;20069;-39
2023/05/27 13:20:39;;;;;;;8.85;2.70;;;18.60;99.90;;;;;;12441793;28;20513;-39
2023/05/27 13:26:41;;;;;;;6.70;2.30;;;18.40;99.90;;;;;;12444122;28;20133;-39
2023/05/27 13:32:43;;;;;;;7.28;2.53;;;18.70;99.90;;;;;;12444353;28;20471;-39
2023/05/27 13:38:45;;;;;;;6.65;2.53;;;19.30;99.90;;;;;;12444878;28;20075;-39
2023/05/27 13:44:47;;;;;;;9.30;2.78;;;18.80;99.90;;;;;;12450903;28;20046;-39
2023/05/27 13:50:49;;;;;;;9.20;3.10;;;19.30;99.90;;;;;;12444967;28;20053;-39
2023/05/27 13:56:51;;;;;;;5.88;2.33;;;19.00;99.90;;;;;;12444643;28;20072;-39
2023/05/27 14:02:54;;;;;;;10.98;3.22;;;18.70;99.90;;;;;;12441611;28;20188;-38
2023/05/27 14:08:56;;;;;;;10.65;3.05;;;19.10;99.90;;;;;;12440551;28;20064;-38
2023/05/27 14:14:57;;;;;;;7.65;2.85;;;19.20;99.90;;;;;;12444909;28;20097;-39
2023/05/27 14:20:59;;;;;;;7.38;2.95;;;19.30;99.90;;;;;;12441172;28;20045;-39
2023/05/27 14:27:01;;;;;;;8.38;2.90;;;19.20;99.90;;;;;;12441953;28;20054;-39
2023/05/27 14:33:06;;;;;;;7.55;2.90;;;18.80;99.90;;;;;;12439711;28;20073;-39
2023/05/27 14:39:08;;;;;;;11.32;3.08;;;19.00;99.90;;;;;;12436717;28;20057;-38
2023/05/27 14:45:11;;;;;;;14.52;3.28;;;19.00;99.90;;;;;;12432358;28;20046;-38
2023/05/27 14:51:12;;;;;;;5.78;2.67;;;18.80;99.90;;;;;;12436834;28;20477;-39
2023/05/27 14:57:14;;;;;;;9.27;2.60;;;18.90;99.90;;;;;;12437995;28;20050;-38
2023/05/27 15:03:16;;;;;;;12.30;3.60;;;18.90;99.90;;;;;;12437751;28;20042;-39
2023/05/27 15:09:19;;;;;;;12.38;3.30;;;18.90;99.90;;;;;;12438449;28;20078;-38
2023/05/27 15:15:21;;;;;;;9.95;3.40;;;18.80;99.90;;;;;;12436034;28;20053;-39
2023/05/27 15:21:25;;;;;;;7.45;2.63;;;19.00;99.90;;;;;;12438638;28;20085;-39
2023/05/27 15:27:27;;;;;;;7.72;2.95;;;19.10;99.90;;;;;;12443577;28;20053;-40
2023/05/27 15:33:29;;;;;;;6.07;2.65;;;19.30;99.90;;;;;;12437917;28;20077;-39
2023/05/27 15:39:31;;;;;;;8.07;2.67;;;19.10;99.90;;;;;;12448343;28;20367;-39
2023/05/27 15:45:34;;;;;;;7.82;2.83;;;19.10;99.90;;;;;;12447355;28;20045;-39
2023/05/27 15:51:37;;;;;;;10.20;3.05;;;19.30;99.90;;;;;;12456913;28;20072;-38
2023/05/27 15:57:39;;;;;;;6.82;2.80;;;19.20;99.90;;;;;;12442097;28;20064;-38
2023/05/27 16:03:40;;;;;;;7.10;2.45;;;19.20;99.90;;;;;;12451612;28;20053;-38
2023/05/27 16:09:42;;;;;;;6.82;2.63;;;19.20;99.90;;;;;;12445286;28;20049;-39
2023/05/27 16:15:45;;;;;;;8.80;2.88;;;19.50;99.90;;;;;;12447068;28;20053;-38
2023/05/27 16:21:48;;;;;;;7.07;2.77;;;19.20;99.90;;;;;;12449184;28;20084;-39
2023/05/27 16:27:49;;;;;;;7.78;2.70;;;19.10;99.90;;;;;;12451404;28;20123;-38
2023/05/27 16:33:51;;;;;;;6.43;2.55;;;19.40;99.90;;;;;;12438972;28;20046;-39
2023/05/27 16:39:53;;;;;;;5.85;2.72;;;19.50;99.90;;;;;;12445110;28;20049;-39
2023/05/27 16:45:55;;;;;;;6.97;2.30;;;19.70;99.90;;;;;;12441452;28;20066;-39
2023/05/27 16:51:57;;;;;;;9.07;2.47;;;19.70;99.90;;;;;;12449279;28;20049;-38
2023/05/27 16:57:59;;;;;;;9.23;2.78;;;19.60;99.90;;;;;;12459887;28;20120;-39
2023/05/27 17:04:01;;;;;;;8.98;2.70;;;19.30;99.90;;;;;;12448946;28;20054;-39
2023/05/27 17:10:03;;;;;;;5.40;2.45;;;19.50;99.90;;;;;;12443073;28;20151;-40
2023/05/27 17:16:06;;;;;;;9.52;2.78;;;19.50;99.90;;;;;;12438106;28;20080;-39
2023/05/27 17:22:09;;;;;;;7.47;2.63;;;19.40;99.90;;;;;;12444434;28;20491;-39
2023/05/27 17:28:11;;;;;;;5.70;2.40;;;19.50;99.90;;;;;;12442737;28;20064;-40
2023/05/27 17:34:13;;;;;;;8.80;2.83;;;19.70;99.90;;;;;;12445344;28;20073;-39
2023/05/27 17:40:15;;;;;;;8.18;2.78;;;19.40;99.90;;;;;;12441847;28;20050;-39
2023/05/27 17:46:17;;;;;;;6.70;2.75;;;19.30;99.90;;;;;;12440174;28;20057;-40
2023/05/27 17:52:19;;;;;;;8.90;2.70;;;19.20;99.90;;;;;;12442659;28;20049;-40
2023/05/27 17:58:22;;;;;;;;;;;19.20;99.90;;;;;;12449423;28;20129;-39
2023/05/27 18:04:24;;;;;;;5.13;2.60;;;19.30;99.90;;;;;;12441476;28;19929;-38
2023/05/27 18:10:27;;;;;;;7.32;3.00;;;18.80;99.90;;;;;;12442032;28;20096;-39
2023/05/27 18:16:29;;;;;;;11.10;3.20;;;18.50;99.90;;;;;;12440273;28;20045;-38
2023/05/27 18:22:31;;;;;;;8.48;3.08;;;18.30;99.90;;;;;;12439255;28;20486;-38
2023/05/27 18:28:33;;;;;;;7.05;2.83;;;18.20;99.90;;;;;;12445134;28;20045;-38
2023/05/27 18:34:35;;;;;;;8.50;3.15;;;18.10;99.90;;;;;;12438703;28;20065;-38
2023/05/27 18:40:39;;;;;;;9.60;2.78;;;18.00;99.90;;;;;;12444764;28;20478;-38
2023/05/27 18:46:41;;;;;;;9.50;3.50;;;17.80;99.90;;;;;;12438448;28;20069;-39
2023/05/27 18:52:45;;;;;;;8.25;2.85;;;17.70;99.90;;;;;;12441271;28;20042;-38
2023/05/27 18:58:46;;;;;;;9.38;2.83;;;17.60;99.90;;;;;;12438343;28;20053;-38
2023/05/27 19:04:49;;;;;;;12.45;3.38;;;17.50;99.90;;;;;;12447302;28;20053;-38
2023/05/27 19:10:51;;;;;;;8.40;3.28;;;17.40;99.90;;;;;;12434727;28;20042;-39
2023/05/27 19:16:53;;;;;;;7.38;3.03;;;17.30;99.90;;;;;;12439062;28;20061;-38
2023/05/27 19:22:55;;;;;;;10.13;2.90;;;17.50;99.90;;;;;;12442352;28;20049;-38
2023/05/27 19:28:58;;;;;;;8.35;3.17;;;17.40;99.90;;;;;;12438809;28;20052;-39
2023/05/27 19:35:00;;;;;;;10.13;3.58;;;17.20;99.90;;;;;;12438445;28;20788;-38
2023/05/27 19:41:02;;;;;;;8.02;3.03;;;17.10;99.90;;;;;;12436541;28;20058;-38
2023/05/27 19:47:03;;;;;;;7.63;3.08;;;16.80;99.90;;;;;;12443852;28;20161;-38
2023/05/27 19:53:06;;;;;;;12.93;3.30;;;16.50;99.90;;;;;;12445513;28;20091;-39
2023/05/27 19:59:08;;;;;;;10.65;3.20;;;16.10;99.90;;;;;;12434389;28;20108;-39
2023/05/27 20:05:10;;;;;;;8.93;3.22;;;15.90;99.90;;;;;;12445285;28;20084;-38
2023/05/27 20:11:12;;;;;;;9.45;3.15;;;15.80;99.90;;;;;;12442409;28;20050;-37
2023/05/27 20:17:14;;;;;;;7.57;3.30;;;15.50;99.90;;;;;;12435942;28;20057;-38
2023/05/27 20:23:16;;;;;;;10.20;3.25;;;15.40;99.90;;;;;;12429139;28;20042;-38
2023/05/27 20:29:18;;;;;;;11.57;3.67;;;15.30;99.90;;;;;;12446694;28;20057;-38
2023/05/27 20:35:20;;;;;;;9.07;3.10;;;15.10;99.90;;;;;;12445321;28;20144;-38
2023/05/27 20:41:28;;;;;;;10.98;3.42;;;15.10;99.90;;;;;;12448336;28;20046;-39
2023/05/27 20:47:30;;;;;;;10.77;3.15;;;14.90;99.90;;;;;;12443885;28;20050;-38
2023/05/27 20:53:32;;;;;;;14.90;3.13;;;14.80;99.90;;;;;;12445160;28;20129;-38
2023/05/27 20:59:34;;;;;;;9.13;3.53;;;14.80;99.90;;;;;;12444488;28;20567;-38
2023/05/27 21:05:36;;;;;;;8.50;3.75;;;14.70;99.90;;;;;;12442577;28;20052;-38
2023/05/27 21:11:38;;;;;;;13.00;5.05;;;14.60;99.90;;;;;;12448356;28;20177;-39
2023/05/27 21:17:40;;;;;;;13.38;4.68;;;14.50;99.90;;;;;;12439006;28;20405;-38
2023/05/27 21:23:42;;;;;;;8.57;4.13;;;14.40;99.90;;;;;;12441607;28;20038;-38
2023/05/27 21:29:45;;;;;;;8.35;3.58;;;14.40;99.90;;;;;;12446077;28;20041;-36
2023/05/27 21:35:47;;;;;;;8.50;3.60;;;14.50;99.90;;;;;;12447331;28;21348;-39
2023/05/27 21:41:50;;;;;;;8.05;3.40;;;14.50;99.90;;;;;;12440456;28;20487;-38
2023/05/27 21:47:51;;;;;;;8.95;3.22;;;14.50;99.90;;;;;;12440430;28;20046;-39
2023/05/27 21:53:53;;;;;;;11.32;3.40;;;14.40;99.90;;;;;;12441772;28;20125;-38
2023/05/27 21:59:56;;;;;;;8.85;3.13;;;14.30;99.90;;;;;;12447462;28;20053;-38
2023/05/27 22:05:58;;;;;;;8.68;3.08;;;14.30;99.90;;;;;;12438999;28;20053;-38
2023/05/27 22:12:01;;;;;;;9.82;3.10;;;14.30;99.90;;;;;;12441047;28;20056;-38
2023/05/27 22:18:03;;;;;;;10.32;3.70;;;14.60;99.90;;;;;;12439419;28;20162;-37
2023/05/27 22:24:05;;;;;;;9.90;3.22;;;14.80;99.90;;;;;;12447715;28;20523;-38
2023/05/27 22:30:07;;;;;;;10.63;3.35;;;14.60;99.90;;;;;;12439125;28;20103;-38
2023/05/27 22:36:10;;;;;;;6.63;2.95;;;14.60;99.90;;;;;;12411169;28;20084;-38
2023/05/27 22:42:12;;;;;;;8.88;3.13;;;14.70;99.90;;;;;;12435916;28;20046;-38
2023/05/27 22:48:14;;;;;;;6.45;2.85;;;14.70;99.90;;;;;;12436902;28;20482;-38
2023/05/27 22:54:17;;;;;;;8.90;3.10;;;14.60;99.90;;;;;;12444903;28;20080;-39
2023/05/27 23:00:19;;;;;;;6.45;3.30;;;14.40;99.90;;;;;;12438285;28;20046;-39
2023/05/27 23:06:21;;;;;;;11.77;3.25;;;14.40;99.90;;;;;;12437639;28;20046;-37
2023/05/27 23:12:23;;;;;;;5.97;2.63;;;14.40;99.90;;;;;;12438785;28;20054;-38
2023/05/27 23:18:25;;;;;;;8.00;3.10;;;14.20;99.90;;;;;;12437165;28;20484;-38
2023/05/27 23:24:27;;;;;;;5.38;2.78;;;14.10;99.90;;;;;;12436426;28;20807;-38
2023/05/27 23:30:29;;;;;;;8.20;2.58;;;14.10;99.90;;;;;;12438174;28;20100;-38
2023/05/27 23:36:31;;;;;;;6.03;2.40;;;14.00;99.90;;;;;;12435260;28;20138;-38
2023/05/27 23:42:33;;;;;;;6.90;2.53;;;14.00;99.90;;;;;;12451645;28;20143;-37
2023/05/27 23:48:36;;;;;;;7.95;2.70;;;13.80;99.90;;;;;;12434433;28;20061;-38
2023/05/27 23:54:38;;;;;;;5.82;2.30;;;13.70;99.90;;;;;;12433110;28;20041;-37
